Time;durP1;ratioP1;P1;durP2;ratioP2;P2;SDS_P1;SDS_P2;PMS_P1;PMS_P2;Temp;Humidity;BMP_temperature;BMP_pressure;BME280_temperature;BME280_humidity;BME280_pressure;Samples;Min_cycle;Max_cycle;Signal;HPM_P1;HPM_P2
2023/12/19 00:00:00;;;;;;;33.43;15.70;;;;;;;;;;4992693;28;20346;-79
2023/12/19 00:02:26;;;;;;;25.57;13.03;;;;;;;;;;4978312;28;20192;-79
2023/12/19 00:04:52;;;;;;;23.27;11.67;;;;;;;;;;4993076;28;20187;-79
2023/12/19 00:07:18;;;;;;;17.70;10.23;;;;;;;;;;4990550;28;20212;-79
2023/12/19 00:09:45;;;;;;;17.13;10.17;;;;;;;;;;4992047;28;20697;-79
2023/12/19 00:12:11;;;;;;;25.83;12.23;;;;;;;;;;4990817;28;20183;-79
2023/12/19 00:14:37;;;;;;;41.77;17.27;;;;;;;;;;4990287;28;20283;-79
2023/12/19 00:17:04;;;;;;;34.90;14.67;;;;;;;;;;4992379;28;20550;-79
2023/12/19 00:19:30;;;;;;;51.53;20.57;;;;;;;;;;4974100;28;20270;-79
2023/12/19 00:21:56;;;;;;;43.13;18.73;;;;;;;;;;4974593;28;20184;-79
2023/12/19 00:24:22;;;;;;;38.87;17.73;;;;;;;;;;4991166;28;20187;-79
2023/12/19 00:26:48;;;;;;;28.47;14.37;;;;;;;;;;4990563;28;20320;-79
2023/12/19 00:29:15;;;;;;;20.23;10.37;;;;;;;;;;4986508;28;20188;-79
2023/12/19 00:31:42;;;;;;;32.00;14.73;;;;;;;;;;4990843;28;20274;-79
2023/12/19 00:34:08;;;;;;;31.63;13.13;;;;;;;;;;4992483;28;20208;-79
2023/12/19 00:36:34;;;;;;;21.57;10.27;;;;;;;;;;4975081;28;20199;-79
2023/12/19 00:39:04;;;;;;;28.13;11.87;;;;;;;;;;4990670;28;20684;-79
2023/12/19 00:41:30;;;;;;;30.30;14.00;;;;;;;;;;4990497;28;20671;-79
2023/12/19 00:43:56;;;;;;;32.70;14.13;;;;;;;;;;4988007;28;20185;-79
2023/12/19 00:46:22;;;;;;;32.63;13.90;;;;;;;;;;4990895;28;20652;-79
2023/12/19 00:48:49;;;;;;;32.43;14.47;;;;;;;;;;4972527;28;20191;-79
2023/12/19 00:51:15;;;;;;;27.87;12.10;;;;;;;;;;4990186;28;20211;-79
2023/12/19 00:53:41;;;;;;;22.67;11.50;;;;;;;;;;4974718;28;20210;-79
2023/12/19 00:56:09;;;;;;;15.87;9.50;;;;;;;;;;4990415;28;20195;-79
2023/12/19 00:58:38;;;;;;;15.23;9.20;;;;;;;;;;4990002;28;20198;-79
2023/12/19 01:01:08;;;;;;;14.17;8.70;;;;;;;;;;4991058;28;20212;-78
2023/12/19 01:03:35;;;;;;;11.67;7.93;;;;;;;;;;4991609;28;20172;-79
2023/12/19 01:06:02;;;;;;;11.70;7.90;;;;;;;;;;4990622;28;20184;-79
2023/12/19 01:08:28;;;;;;;10.43;7.57;;;;;;;;;;4988506;28;20207;-79
2023/12/19 01:10:55;;;;;;;9.33;6.97;;;;;;;;;;4991683;28;20210;-79
2023/12/19 01:13:21;;;;;;;9.93;7.60;;;;;;;;;;4990920;28;20192;-79
2023/12/19 01:15:48;;;;;;;18.03;9.83;;;;;;;;;;4990011;28;20188;-79
2023/12/19 01:18:14;;;;;;;18.53;10.50;;;;;;;;;;4988657;28;20187;-79
2023/12/19 01:20:40;;;;;;;22.40;12.30;;;;;;;;;;4991070;28;20220;-77
2023/12/19 01:23:06;;;;;;;21.03;12.10;;;;;;;;;;4976591;28;20180;-79
2023/12/19 01:25:33;;;;;;;23.43;12.43;;;;;;;;;;4961635;28;20628;-79
2023/12/19 01:27:59;;;;;;;20.33;11.90;;;;;;;;;;4989814;28;20192;-79
2023/12/19 01:30:25;;;;;;;23.20;12.90;;;;;;;;;;4991722;28;20720;-79
2023/12/19 01:32:51;;;;;;;19.17;12.00;;;;;;;;;;4991728;28;20188;-79
2023/12/19 01:35:18;;;;;;;20.07;11.20;;;;;;;;;;4991268;28;20192;-79
2023/12/19 01:37:44;;;;;;;26.40;14.63;;;;;;;;;;4990869;28;20211;-79
2023/12/19 01:40:10;;;;;;;22.03;12.87;;;;;;;;;;4989214;28;20600;-79
2023/12/19 01:42:36;;;;;;;18.63;11.80;;;;;;;;;;4976634;28;20180;-79
2023/12/19 01:45:05;;;;;;;16.03;10.40;;;;;;;;;;4991495;28;20190;-79
2023/12/19 01:47:32;;;;;;;11.90;8.90;;;;;;;;;;4991112;28;20180;-79
2023/12/19 01:49:58;;;;;;;10.47;7.97;;;;;;;;;;4971142;28;20209;-79
2023/12/19 01:52:24;;;;;;;11.97;8.00;;;;;;;;;;4990969;28;20652;-79
2023/12/19 01:54:50;;;;;;;9.97;7.27;;;;;;;;;;4997030;28;20190;-79
2023/12/19 01:57:16;;;;;;;9.77;7.70;;;;;;;;;;5000300;28;20194;-79
2023/12/19 01:59:43;;;;;;;8.83;6.80;;;;;;;;;;4996430;28;20216;-79
2023/12/19 02:02:09;;;;;;;9.70;7.00;;;;;;;;;;4996723;28;20384;-79
2023/12/19 02:04:35;;;;;;;9.53;7.20;;;;;;;;;;4996868;28;20267;-79
2023/12/19 02:07:01;;;;;;;9.30;6.87;;;;;;;;;;4980664;28;20219;-79
2023/12/19 02:09:27;;;;;;;10.27;6.73;;;;;;;;;;4995933;28;20584;-79
2023/12/19 02:11:53;;;;;;;8.77;6.27;;;;;;;;;;4978009;28;20219;-79
2023/12/19 02:14:19;;;;;;;9.60;6.70;;;;;;;;;;4996283;28;20204;-79
2023/12/19 02:16:45;;;;;;;8.73;7.00;;;;;;;;;;4997172;28;20195;-79
2023/12/19 02:19:13;;;;;;;8.37;6.80;;;;;;;;;;4995275;28;20394;-79
2023/12/19 02:21:39;;;;;;;9.40;6.93;;;;;;;;;;4995855;28;20190;-79
2023/12/19 02:24:05;;;;;;;8.00;6.77;;;;;;;;;;4996176;28;20186;-79
2023/12/19 02:26:32;;;;;;;9.50;7.40;;;;;;;;;;4995322;28;20361;-79
2023/12/19 02:28:58;;;;;;;8.97;6.60;;;;;;;;;;4995499;28;20191;-79
2023/12/19 02:31:24;;;;;;;7.43;6.43;;;;;;;;;;4993148;28;20223;-80
2023/12/19 02:33:50;;;;;;;9.80;6.83;;;;;;;;;;4995926;28;20311;-79
2023/12/19 02:36:16;;;;;;;8.43;6.33;;;;;;;;;;4978494;28;20720;-79
2023/12/19 02:38:43;;;;;;;8.23;6.50;;;;;;;;;;4993375;28;20282;-79
2023/12/19 02:41:10;;;;;;;8.67;6.77;;;;;;;;;;4993814;28;20200;-79
2023/12/19 02:43:37;;;;;;;9.07;6.93;;;;;;;;;;4995556;28;20210;-79
2023/12/19 02:46:04;;;;;;;9.10;6.83;;;;;;;;;;4976583;28;20203;-79
2023/12/19 02:48:30;;;;;;;9.07;6.67;;;;;;;;;;4977635;28;20191;-79
2023/12/19 02:50:56;;;;;;;8.97;6.63;;;;;;;;;;4991972;28;20294;-78
2023/12/19 02:53:22;;;;;;;9.27;7.33;;;;;;;;;;4993994;28;20196;-79
2023/12/19 02:55:48;;;;;;;9.03;6.77;;;;;;;;;;4994139;28;20184;-79
2023/12/19 02:58:14;;;;;;;8.37;6.97;;;;;;;;;;4978148;28;20214;-79
2023/12/19 03:00:40;;;;;;;10.90;7.93;;;;;;;;;;4976799;28;20234;-78
2023/12/19 03:03:07;;;;;;;9.63;7.73;;;;;;;;;;4995595;28;20184;-79
2023/12/19 03:05:33;;;;;;;9.63;6.93;;;;;;;;;;4991092;28;20198;-79
2023/12/19 03:07:59;;;;;;;10.23;8.07;;;;;;;;;;4993410;28;20498;-79
2023/12/19 03:10:25;;;;;;;9.77;7.13;;;;;;;;;;4994229;28;20254;-79
2023/12/19 03:12:51;;;;;;;9.93;7.37;;;;;;;;;;4992892;28;20188;-79
2023/12/19 03:15:17;;;;;;;11.33;8.00;;;;;;;;;;4993107;28;20219;-79
2023/12/19 03:17:44;;;;;;;9.60;7.40;;;;;;;;;;4994687;28;20513;-79
2023/12/19 03:20:10;;;;;;;10.87;8.00;;;;;;;;;;4993882;28;20657;-79
2023/12/19 03:22:36;;;;;;;10.87;8.20;;;;;;;;;;4990297;28;20245;-79
2023/12/19 03:25:02;;;;;;;11.97;8.27;;;;;;;;;;4994218;28;20191;-78
2023/12/19 03:27:29;;;;;;;12.87;9.20;;;;;;;;;;4990952;28;20192;-79
2023/12/19 03:29:55;;;;;;;12.60;9.70;;;;;;;;;;4976631;28;20571;-79
2023/12/19 03:32:21;;;;;;;12.20;9.33;;;;;;;;;;4986806;28;20199;-79
2023/12/19 03:34:47;;;;;;;12.07;8.83;;;;;;;;;;4994517;28;20568;-79
2023/12/19 03:37:13;;;;;;;13.70;9.40;;;;;;;;;;4992074;28;20207;-79
2023/12/19 03:39:39;;;;;;;12.47;9.10;;;;;;;;;;4992041;28;20661;-79
2023/12/19 03:42:05;;;;;;;11.20;8.97;;;;;;;;;;4990058;28;20188;-79
2023/12/19 03:44:32;;;;;;;11.13;8.30;;;;;;;;;;4993080;28;20188;-79
2023/12/19 03:46:58;;;;;;;10.57;8.37;;;;;;;;;;4985819;28;20222;-79
2023/12/19 03:49:24;;;;;;;11.40;8.37;;;;;;;;;;4976996;28;20191;-79
2023/12/19 03:51:50;;;;;;;12.03;8.87;;;;;;;;;;4986858;28;20210;-79
2023/12/19 03:54:16;;;;;;;11.90;8.83;;;;;;;;;;4996574;28;20190;-79
2023/12/19 03:56:42;;;;;;;13.73;9.23;;;;;;;;;;4979636;28;20292;-79
2023/12/19 03:59:10;;;;;;;12.60;9.30;;;;;;;;;;4995603;28;20203;-79
2023/12/19 04:01:44;;;;;;;10.20;8.13;;;;;;;;;;4993500;28;20207;-79
2023/12/19 04:04:10;;;;;;;12.07;8.97;;;;;;;;;;4978528;28;20643;-79
2023/12/19 04:06:36;;;;;;;13.43;9.13;;;;;;;;;;4977891;28;20192;-79
2023/12/19 04:09:02;;;;;;;12.77;9.07;;;;;;;;;;4993894;28;20192;-79
2023/12/19 04:11:29;;;;;;;11.57;8.87;;;;;;;;;;4961170;28;20207;-78
2023/12/19 04:13:55;;;;;;;12.97;8.80;;;;;;;;;;4993735;28;20668;-79
2023/12/19 04:16:21;;;;;;;13.40;9.37;;;;;;;;;;4993398;28;20183;-79
2023/12/19 04:18:48;;;;;;;13.20;8.67;;;;;;;;;;4993924;28;20180;-79
2023/12/19 04:21:14;;;;;;;12.77;9.63;;;;;;;;;;4989918;28;20227;-79
2023/12/19 04:23:40;;;;;;;12.83;9.47;;;;;;;;;;4990652;28;20318;-79
2023/12/19 04:26:06;;;;;;;14.03;9.93;;;;;;;;;;4976403;28;20679;-79
2023/12/19 04:28:32;;;;;;;13.13;9.33;;;;;;;;;;4976740;28;20263;-79
2023/12/19 04:30:58;;;;;;;12.33;9.17;;;;;;;;;;4991900;28;20211;-79
2023/12/19 04:33:24;;;;;;;14.73;9.77;;;;;;;;;;4989622;28;20275;-79
2023/12/19 04:35:50;;;;;;;14.00;9.53;;;;;;;;;;4992475;28;20196;-79
2023/12/19 04:38:17;;;;;;;13.73;9.60;;;;;;;;;;4975563;28;20196;-79
2023/12/19 04:40:43;;;;;;;13.80;10.00;;;;;;;;;;4990321;28;20258;-79
2023/12/19 04:43:09;;;;;;;13.77;9.50;;;;;;;;;;4975613;28;20196;-79
2023/12/19 04:45:35;;;;;;;15.50;10.27;;;;;;;;;;4975798;28;20242;-79
2023/12/19 04:48:01;;;;;;;14.80;10.93;;;;;;;;;;4992056;28;20555;-79
2023/12/19 04:50:27;;;;;;;18.07;12.33;;;;;;;;;;4976437;28;20312;-79
2023/12/19 04:52:53;;;;;;;16.93;12.27;;;;;;;;;;4989305;28;20199;-79
2023/12/19 04:55:19;;;;;;;19.27;13.33;;;;;;;;;;4987620;28;20185;-79
2023/12/19 04:57:45;;;;;;;18.57;13.10;;;;;;;;;;4992091;28;20188;-79
2023/12/19 05:00:12;;;;;;;18.53;13.03;;;;;;;;;;4991738;28;20298;-79
2023/12/19 05:02:38;;;;;;;17.90;12.03;;;;;;;;;;4992219;28;20663;-79
2023/12/19 05:05:04;;;;;;;19.63;12.63;;;;;;;;;;4991330;28;20652;-79
2023/12/19 05:07:32;;;;;;;17.10;11.97;;;;;;;;;;4991661;28;20172;-79
2023/12/19 05:09:58;;;;;;;18.20;12.37;;;;;;;;;;4959526;28;20207;-79
2023/12/19 05:12:24;;;;;;;15.67;11.43;;;;;;;;;;4991028;28;20636;-78
2023/12/19 05:14:50;;;;;;;16.67;12.00;;;;;;;;;;4991465;28;20211;-79
2023/12/19 05:17:16;;;;;;;16.93;11.70;;;;;;;;;;4975884;28;20196;-77
2023/12/19 05:19:43;;;;;;;15.93;11.50;;;;;;;;;;4972020;28;20227;-79
2023/12/19 05:22:10;;;;;;;16.33;11.80;;;;;;;;;;4986030;28;20298;-79
2023/12/19 05:24:38;;;;;;;20.07;13.10;;;;;;;;;;4989530;28;20186;-79
2023/12/19 05:27:07;;;;;;;18.30;12.90;;;;;;;;;;4990270;28;20290;-79
2023/12/19 05:29:34;;;;;;;17.20;12.43;;;;;;;;;;4987881;28;20262;-78
2023/12/19 05:32:00;;;;;;;17.63;12.33;;;;;;;;;;4987453;28;20183;-79
2023/12/19 05:34:27;;;;;;;18.03;12.73;;;;;;;;;;4987285;28;20275;-79
2023/12/19 05:36:53;;;;;;;16.57;11.60;;;;;;;;;;4970285;28;20675;-79
2023/12/19 05:39:19;;;;;;;19.27;12.43;;;;;;;;;;4987066;28;20679;-78
2023/12/19 05:41:56;;;;;;;19.37;12.87;;;;;;;;;;4987121;28;20187;-79
2023/12/19 05:44:23;;;;;;;16.10;11.80;;;;;;;;;;4977979;28;20652;-78
2023/12/19 05:46:50;;;;;;;16.50;11.70;;;;;;;;;;4986834;28;20223;-79
2023/12/19 05:49:17;;;;;;;18.97;12.23;;;;;;;;;;4970261;28;20559;-79
2023/12/19 05:51:43;;;;;;;17.47;12.80;;;;;;;;;;4990204;28;20214;-78
2023/12/19 05:54:10;;;;;;;16.80;11.67;;;;;;;;;;4957728;28;20188;-79
2023/12/19 05:56:36;;;;;;;20.20;12.77;;;;;;;;;;4988784;28;20230;-79
2023/12/19 05:59:02;;;;;;;18.00;12.60;;;;;;;;;;4987260;28;20638;-79
2023/12/19 06:01:29;;;;;;;18.47;12.80;;;;;;;;;;4975902;28;20214;-79
2023/12/19 06:03:55;;;;;;;17.87;12.43;;;;;;;;;;4987373;28;20192;-79
2023/12/19 06:06:21;;;;;;;16.30;11.73;;;;;;;;;;4987016;28;20191;-79
2023/12/19 06:08:48;;;;;;;17.93;12.43;;;;;;;;;;4987752;28;20221;-79
2023/12/19 06:11:25;;;;;;;17.23;12.23;;;;;;;;;;4987181;28;20699;-79
2023/12/19 06:13:52;;;;;;;17.00;12.17;;;;;;;;;;4986264;28;20675;-78
2023/12/19 06:16:18;;;;;;;16.73;11.70;;;;;;;;;;4986504;28;20242;-78
2023/12/19 06:18:44;;;;;;;17.90;12.27;;;;;;;;;;4976770;28;20675;-79
2023/12/19 06:21:10;;;;;;;16.53;11.90;;;;;;;;;;4985642;28;21610;-79
2023/12/19 06:23:37;;;;;;;16.85;13.65;;;;;;;;;;4968002;28;20739;-79
2023/12/19 06:26:03;;;;;;;17.23;12.10;;;;;;;;;;4986353;28;20729;-79
2023/12/19 06:28:30;;;;;;;15.07;11.67;;;;;;;;;;4989159;28;20184;-79
2023/12/19 06:30:56;;;;;;;17.03;12.23;;;;;;;;;;4983369;28;20683;-79
2023/12/19 06:33:22;;;;;;;17.17;12.30;;;;;;;;;;4982375;28;20413;-78
2023/12/19 06:35:56;;;;;;;19.10;13.27;;;;;;;;;;4965653;28;20208;-79
2023/12/19 06:38:22;;;;;;;19.30;13.00;;;;;;;;;;4983018;28;20198;-79
2023/12/19 06:40:48;;;;;;;18.83;12.63;;;;;;;;;;4991611;28;20219;-79
2023/12/19 06:43:15;;;;;;;17.70;12.07;;;;;;;;;;4995140;28;20188;-77
2023/12/19 06:45:44;;;;;;;18.97;13.10;;;;;;;;;;4991751;28;20184;-79
2023/12/19 06:48:14;;;;;;;20.00;15.53;;;;;;;;;;4975846;28;20461;-79
2023/12/19 06:50:43;;;;;;;19.40;13.03;;;;;;;;;;4974076;28;20707;-79
2023/12/19 06:53:09;;;;;;;19.83;14.60;;;;;;;;;;4992594;28;20432;-79
2023/12/19 06:55:38;;;;;;;19.95;15.32;;;;;;;;;;4988393;28;20473;-79
2023/12/19 06:58:07;;;;;;;21.30;14.07;;;;;;;;;;4997265;28;20216;-84
2023/12/19 07:00:39;;;;;;;20.33;13.40;;;;;;;;;;4974405;28;20266;-83
2023/12/19 07:03:06;;;;;;;18.73;13.10;;;;;;;;;;4996744;28;20251;-86
2023/12/19 07:05:32;;;;;;;18.87;12.90;;;;;;;;;;4958872;28;20720;-83
2023/12/19 07:07:58;;;;;;;19.93;13.40;;;;;;;;;;5009423;28;20180;-78
2023/12/19 07:10:24;;;;;;;18.07;12.10;;;;;;;;;;4991544;28;20219;-82
2023/12/19 07:12:52;;;;;;;19.20;12.70;;;;;;;;;;4992834;28;20196;-85
2023/12/19 07:15:18;;;;;;;18.23;11.93;;;;;;;;;;4976446;28;20226;-80
2023/12/19 07:17:46;;;;;;;19.87;13.43;;;;;;;;;;4979936;28;20186;-82
2023/12/19 07:20:14;;;;;;;16.50;11.70;;;;;;;;;;4978494;28;20207;-80
2023/12/19 07:22:41;;;;;;;18.20;13.00;;;;;;;;;;4995526;28;20192;-81
2023/12/19 07:25:08;;;;;;;17.93;12.23;;;;;;;;;;4980030;28;20187;-80
2023/12/19 07:27:34;;;;;;;21.03;12.70;;;;;;;;;;4982296;28;20244;-81
2023/12/19 07:30:04;;;;;;;20.80;12.20;;;;;;;;;;4978345;28;20226;-80
2023/12/19 07:32:31;;;;;;;17.83;12.50;;;;;;;;;;4994824;28;20183;-81
2023/12/19 07:35:03;;;;;;;20.30;13.63;;;;;;;;;;4982147;28;20652;-81
2023/12/19 07:37:30;;;;;;;20.30;13.50;;;;;;;;;;4976975;28;20191;-82
2023/12/19 07:39:56;;;;;;;18.13;13.33;;;;;;;;;;4978284;28;20302;-80
2023/12/19 07:42:22;;;;;;;22.73;13.73;;;;;;;;;;4993600;28;20220;-82
2023/12/19 07:44:49;;;;;;;21.40;13.17;;;;;;;;;;4978397;28;20188;-82
2023/12/19 07:47:15;;;;;;;21.20;14.23;;;;;;;;;;4977373;28;20294;-82
2023/12/19 07:49:41;;;;;;;21.73;13.40;;;;;;;;;;4992964;28;20212;-82
2023/12/19 07:52:10;;;;;;;18.03;13.00;;;;;;;;;;4989486;28;20427;-83
2023/12/19 07:54:40;;;;;;;19.73;13.23;;;;;;;;;;4995225;28;20196;-83
2023/12/19 07:57:07;;;;;;;17.87;12.77;;;;;;;;;;4979473;28;20199;-83
2023/12/19 07:59:33;;;;;;;19.77;13.20;;;;;;;;;;4978586;28;20216;-82
2023/12/19 08:01:59;;;;;;;18.03;13.57;;;;;;;;;;4974793;28;20183;-81
2023/12/19 08:04:25;;;;;;;18.23;12.77;;;;;;;;;;4963076;28;20194;-82
2023/12/19 08:06:53;;;;;;;18.03;12.33;;;;;;;;;;4988478;28;20194;-81
2023/12/19 08:09:19;;;;;;;15.33;11.60;;;;;;;;;;4985778;28;20207;-80
2023/12/19 08:11:49;;;;;;;18.60;12.53;;;;;;;;;;4988943;28;20275;-81
2023/12/19 08:14:15;;;;;;;16.97;11.70;;;;;;;;;;4986134;28;20561;-81
2023/12/19 08:16:41;;;;;;;17.20;12.30;;;;;;;;;;4962913;28;21375;-80
2023/12/19 08:19:11;;;;;;;18.43;12.17;;;;;;;;;;4988928;28;20204;-80
2023/12/19 08:21:47;;;;;;;18.60;13.70;;;;;;;;;;4962980;28;20695;-80
2023/12/19 08:24:17;;;;;;;20.70;13.97;;;;;;;;;;4973191;28;20697;-81
2023/12/19 08:26:50;;;;;;;19.60;13.17;;;;;;;;;;4971376;28;20315;-81
2023/12/19 08:29:17;;;;;;;18.17;12.90;;;;;;;;;;4983271;28;20699;-81
2023/12/19 08:31:46;;;;;;;19.53;12.83;;;;;;;;;;4985924;28;20199;-82
2023/12/19 08:34:12;;;;;;;18.97;12.60;;;;;;;;;;4958822;28;20341;-82
2023/12/19 08:36:38;;;;;;;18.03;12.40;;;;;;;;;;4986108;28;20195;-82
2023/12/19 08:39:07;;;;;;;18.07;12.33;;;;;;;;;;4971479;28;20219;-82
2023/12/19 08:41:33;;;;;;;18.90;12.80;;;;;;;;;;4987422;28;20218;-82
2023/12/19 08:43:59;;;;;;;17.43;12.60;;;;;;;;;;4972081;28;20188;-82
2023/12/19 08:46:25;;;;;;;16.23;11.93;;;;;;;;;;4972041;28;20269;-83
2023/12/19 08:48:52;;;;;;;17.40;12.30;;;;;;;;;;4956093;28;20240;-82
2023/12/19 08:51:18;;;;;;;18.87;12.80;;;;;;;;;;4972301;28;20876;-82
2023/12/19 08:53:44;;;;;;;16.87;12.23;;;;;;;;;;4974544;28;20187;-82
2023/12/19 08:56:10;;;;;;;18.40;13.70;;;;;;;;;;4973552;28;20652;-82
2023/12/19 08:58:36;;;;;;;20.00;13.17;;;;;;;;;;4971941;28;20556;-82
2023/12/19 09:01:03;;;;;;;19.40;13.13;;;;;;;;;;4982514;28;20223;-82
2023/12/19 09:03:29;;;;;;;19.07;13.43;;;;;;;;;;4969288;28;20239;-82
2023/12/19 09:05:55;;;;;;;17.20;12.80;;;;;;;;;;4983157;28;20184;-81
2023/12/19 09:08:23;;;;;;;18.70;13.57;;;;;;;;;;4966055;28;20196;-82
2023/12/19 09:10:50;;;;;;;19.13;13.43;;;;;;;;;;4967975;28;20208;-82
2023/12/19 09:13:16;;;;;;;19.67;13.13;;;;;;;;;;4970691;28;20199;-80
2023/12/19 09:15:44;;;;;;;17.27;12.33;;;;;;;;;;4969851;28;20273;-78
2023/12/19 09:18:10;;;;;;;17.03;12.13;;;;;;;;;;4972402;28;20262;-80
2023/12/19 09:20:36;;;;;;;15.50;11.63;;;;;;;;;;4970501;28;20219;-80
2023/12/19 09:23:02;;;;;;;19.43;13.27;;;;;;;;;;4968361;28;20194;-83
2023/12/19 09:25:29;;;;;;;18.40;12.20;;;;;;;;;;4987892;28;20180;-82
2023/12/19 09:27:55;;;;;;;17.33;12.13;;;;;;;;;;4988395;28;20191;-82
2023/12/19 09:30:21;;;;;;;19.00;12.50;;;;;;;;;;4971152;28;20508;-82
2023/12/19 09:32:48;;;;;;;16.87;11.63;;;;;;;;;;4989217;28;20568;-82
2023/12/19 09:35:14;;;;;;;19.80;12.33;;;;;;;;;;4972404;28;20223;-82
2023/12/19 09:37:40;;;;;;;18.23;12.63;;;;;;;;;;4987884;28;20218;-82
2023/12/19 09:40:13;;;;;;;15.93;11.40;;;;;;;;;;4989413;28;20235;-81
2023/12/19 09:42:39;;;;;;;18.67;12.17;;;;;;;;;;4972452;28;20270;-82
2023/12/19 09:45:07;;;;;;;16.13;11.90;;;;;;;;;;4988512;28;20191;-82
2023/12/19 09:47:33;;;;;;;15.73;11.00;;;;;;;;;;4970103;28;20726;-82
2023/12/19 09:50:01;;;;;;;16.40;12.07;;;;;;;;;;4986745;28;20741;-82
2023/12/19 09:52:27;;;;;;;18.50;12.77;;;;;;;;;;4970411;28;20194;-83
2023/12/19 09:54:54;;;;;;;18.13;12.40;;;;;;;;;;4963613;28;20207;-82
2023/12/19 09:57:23;;;;;;;17.80;11.77;;;;;;;;;;4987333;28;20206;-82
2023/12/19 09:59:52;;;;;;;24.50;13.33;;;;;;;;;;4972471;28;20269;-82
2023/12/19 10:02:18;;;;;;;22.90;13.80;;;;;;;;;;4965010;28;20226;-82
2023/12/19 10:04:44;;;;;;;20.63;13.40;;;;;;;;;;4970937;28;20184;-82
2023/12/19 10:07:10;;;;;;;19.57;12.50;;;;;;;;;;4988575;28;20196;-83
2023/12/19 10:09:55;;;;;;;17.17;12.63;;;;;;;;;;4986584;28;20290;-82
2023/12/19 10:12:22;;;;;;;16.63;11.70;;;;;;;;;;4971083;28;20599;-82
2023/12/19 10:14:48;;;;;;;16.67;12.33;;;;;;;;;;4974635;28;20200;-82
2023/12/19 10:17:16;;;;;;;17.37;12.53;;;;;;;;;;4976075;28;20261;-82
2023/12/19 10:19:42;;;;;;;17.87;11.93;;;;;;;;;;4973988;28;20275;-82
2023/12/19 10:22:13;;;;;;;17.37;11.43;;;;;;;;;;4990865;28;20187;-82
2023/12/19 10:24:39;;;;;;;18.50;12.73;;;;;;;;;;4975658;28;20258;-81
2023/12/19 10:27:06;;;;;;;15.17;11.33;;;;;;;;;;4991298;28;20471;-82
2023/12/19 10:29:39;;;;;;;16.90;11.70;;;;;;;;;;4991814;28;20215;-82
2023/12/19 10:32:31;;;;;;;17.90;11.97;;;;;;;;;;4967131;28;20199;-83
2023/12/19 10:34:58;;;;;;;16.47;11.80;;;;;;;;;;4989958;28;20195;-82
2023/12/19 10:37:28;;;;;;;15.33;11.17;;;;;;;;;;4974780;28;20192;-82
2023/12/19 10:40:09;;;;;;;17.13;11.33;;;;;;;;;;4975292;28;20219;-82
2023/12/19 10:42:36;;;;;;;16.47;12.20;;;;;;;;;;4973460;28;20274;-82
2023/12/19 10:45:04;;;;;;;16.27;11.10;;;;;;;;;;4974519;28;20199;-81
2023/12/19 10:47:31;;;;;;;15.57;10.90;;;;;;;;;;4973345;28;20684;-81
2023/12/19 10:49:57;;;;;;;16.20;11.00;;;;;;;;;;4971754;28;20770;-82
2023/12/19 10:52:27;;;;;;;16.00;11.73;;;;;;;;;;4965171;28;20646;-82
2023/12/19 10:54:56;;;;;;;15.80;11.23;;;;;;;;;;4974110;28;20200;-82
2023/12/19 10:57:24;;;;;;;18.63;11.30;;;;;;;;;;4990276;28;20279;-82
2023/12/19 10:59:55;;;;;;;15.40;11.27;;;;;;;;;;4973914;28;20207;-81
2023/12/19 11:02:40;;;;;;;15.33;10.97;;;;;;;;;;4973068;28;20223;-78
2023/12/19 11:05:25;;;;;;;16.37;11.37;;;;;;;;;;4991731;28;20219;-79
2023/12/19 11:07:51;;;;;;;14.53;10.73;;;;;;;;;;4973174;28;20183;-81
2023/12/19 11:10:22;;;;;;;15.20;10.90;;;;;;;;;;4993289;28;20580;-80
2023/12/19 11:12:50;;;;;;;16.33;10.70;;;;;;;;;;4984531;28;20219;-85
2023/12/19 11:15:16;;;;;;;15.67;10.90;;;;;;;;;;4974783;28;20206;-79
2023/12/19 11:17:54;;;;;;;15.23;10.33;;;;;;;;;;4990001;28;20290;-80
2023/12/19 11:20:23;;;;;;;15.63;10.87;;;;;;;;;;4991388;28;20203;-80
2023/12/19 11:22:58;;;;;;;15.13;10.57;;;;;;;;;;4992416;28;20219;-80
2023/12/19 11:25:30;;;;;;;15.47;10.30;;;;;;;;;;4992926;28;20587;-80
2023/12/19 11:28:00;;;;;;;16.33;11.07;;;;;;;;;;4959739;28;20551;-80
2023/12/19 11:30:37;;;;;;;15.67;10.97;;;;;;;;;;4991075;28;20238;-79
2023/12/19 11:33:04;;;;;;;17.03;11.60;;;;;;;;;;4985374;28;20188;-79
2023/12/19 11:35:31;;;;;;;16.53;11.73;;;;;;;;;;4989911;28;20254;-79
2023/12/19 11:38:17;;;;;;;15.30;10.50;;;;;;;;;;4989404;28;20317;-79
2023/12/19 11:40:47;;;;;;;14.70;10.63;;;;;;;;;;4989431;28;20220;-79
2023/12/19 11:43:35;;;;;;;15.97;10.30;;;;;;;;;;4988559;28;20722;-79
2023/12/19 11:46:06;;;;;;;14.17;10.00;;;;;;;;;;4988582;28;20234;-79
2023/12/19 11:48:39;;;;;;;14.73;10.13;;;;;;;;;;4989604;28;20184;-79
2023/12/19 11:51:09;;;;;;;16.67;10.93;;;;;;;;;;4989228;28;20239;-79
2023/12/19 11:53:36;;;;;;;15.43;10.57;;;;;;;;;;4973480;28;20180;-78
2023/12/19 11:56:13;;;;;;;13.77;9.73;;;;;;;;;;4989420;28;20436;-80
2023/12/19 11:58:47;;;;;;;16.00;10.53;;;;;;;;;;4990508;28;20188;-82
2023/12/19 12:01:13;;;;;;;16.13;10.33;;;;;;;;;;4990335;28;20220;-80
2023/12/19 12:03:39;;;;;;;14.63;10.13;;;;;;;;;;4974048;28;20188;-81
2023/12/19 12:06:06;;;;;;;13.73;9.70;;;;;;;;;;4990799;28;20191;-81
2023/12/19 12:08:32;;;;;;;13.33;9.87;;;;;;;;;;4973058;28;20212;-80
2023/12/19 12:10:59;;;;;;;14.17;10.23;;;;;;;;;;4987756;28;20215;-81
2023/12/19 12:13:27;;;;;;;14.80;10.17;;;;;;;;;;4990036;28;20210;-80
2023/12/19 12:15:54;;;;;;;15.10;10.00;;;;;;;;;;4989070;28;20215;-80
2023/12/19 12:18:20;;;;;;;14.77;10.17;;;;;;;;;;4989344;28;20276;-80
2023/12/19 12:20:46;;;;;;;13.87;9.43;;;;;;;;;;4987735;28;20719;-79
2023/12/19 12:23:12;;;;;;;14.47;9.50;;;;;;;;;;4987966;28;20180;-79
2023/12/19 12:25:38;;;;;;;14.43;9.93;;;;;;;;;;4986186;28;20195;-80
2023/12/19 12:28:11;;;;;;;13.77;9.70;;;;;;;;;;4987339;28;20211;-80
2023/12/19 12:30:38;;;;;;;13.43;9.17;;;;;;;;;;4990188;28;20212;-79
2023/12/19 12:33:05;;;;;;;14.20;9.70;;;;;;;;;;4988931;28;20270;-80
2023/12/19 12:35:35;;;;;;;13.23;9.53;;;;;;;;;;4987996;28;20273;-80
2023/12/19 12:38:06;;;;;;;10.70;8.27;;;;;;;;;;4986789;28;20537;-78
2023/12/19 12:40:33;;;;;;;11.13;7.70;;;;;;;;;;4986381;28;20315;-76
2023/12/19 12:43:18;;;;;;;11.77;8.30;;;;;;;;;;4985726;28;20222;-76
2023/12/19 12:45:44;;;;;;;9.67;7.30;;;;;;;;;;4985995;28;20188;-77
2023/12/19 12:48:11;;;;;;;10.67;7.47;;;;;;;;;;4986835;28;20187;-78
2023/12/19 12:50:37;;;;;;;11.17;7.43;;;;;;;;;;4970906;28;20777;-79
2023/12/19 12:53:04;;;;;;;10.43;7.40;;;;;;;;;;4971189;28;20204;-78
2023/12/19 12:55:30;;;;;;;11.13;7.37;;;;;;;;;;4986570;28;20213;-78
2023/12/19 12:58:00;;;;;;;8.93;6.93;;;;;;;;;;4986802;28;20664;-78
2023/12/19 13:00:27;;;;;;;9.00;7.00;;;;;;;;;;4982861;28;20235;-78
2023/12/19 13:02:53;;;;;;;10.93;6.40;;;;;;;;;;4984027;28;20274;-78
2023/12/19 13:05:19;;;;;;;8.10;5.93;;;;;;;;;;4986778;28;20560;-78
2023/12/19 13:07:45;;;;;;;7.47;6.03;;;;;;;;;;4984263;28;20192;-78
2023/12/19 13:10:11;;;;;;;7.60;5.80;;;;;;;;;;4985121;28;20230;-78
2023/12/19 13:12:41;;;;;;;8.98;6.28;;;;;;;;;;4950052;28;1037200;-78
2023/12/19 13:15:08;;;;;;;8.10;5.97;;;;;;;;;;4984860;28;20210;-78
2023/12/19 13:17:34;;;;;;;7.87;6.00;;;;;;;;;;4987265;28;20188;-78
2023/12/19 13:20:00;;;;;;;7.73;5.67;;;;;;;;;;4985532;28;20582;-78
2023/12/19 13:22:26;;;;;;;9.17;6.10;;;;;;;;;;4970476;28;20192;-78
2023/12/19 13:24:52;;;;;;;7.93;6.03;;;;;;;;;;4987906;28;20186;-78
2023/12/19 13:27:18;;;;;;;7.30;5.37;;;;;;;;;;4970395;28;20214;-79
2023/12/19 13:29:44;;;;;;;8.03;5.67;;;;;;;;;;4986300;28;20235;-79
2023/12/19 13:32:11;;;;;;;7.80;5.60;;;;;;;;;;4986236;28;20199;-79
2023/12/19 13:34:37;;;;;;;7.57;5.77;;;;;;;;;;4985936;28;20274;-79
2023/12/19 13:37:03;;;;;;;8.23;5.90;;;;;;;;;;4987948;28;20416;-78
2023/12/19 13:39:29;;;;;;;7.47;5.90;;;;;;;;;;4986517;28;20306;-79
2023/12/19 13:42:00;;;;;;;6.73;5.63;;;;;;;;;;4970411;28;20220;-78
2023/12/19 13:44:26;;;;;;;7.23;5.37;;;;;;;;;;4987947;28;20203;-78
2023/12/19 13:46:52;;;;;;;6.90;5.47;;;;;;;;;;4987320;28;20180;-78
2023/12/19 13:49:19;;;;;;;8.90;5.60;;;;;;;;;;4984423;28;20198;-78
2023/12/19 13:51:45;;;;;;;7.07;5.73;;;;;;;;;;4985437;28;20195;-79
2023/12/19 13:54:11;;;;;;;7.97;5.67;;;;;;;;;;4984907;28;20674;-78
2023/12/19 13:56:37;;;;;;;8.50;6.37;;;;;;;;;;4981248;28;20190;-80
2023/12/19 13:59:06;;;;;;;7.73;5.43;;;;;;;;;;4965809;28;20199;-79
2023/12/19 14:01:33;;;;;;;6.77;5.20;;;;;;;;;;4983162;28;20215;-78
2023/12/19 14:03:59;;;;;;;7.27;5.57;;;;;;;;;;4985722;28;20253;-78
2023/12/19 14:06:25;;;;;;;6.80;5.27;;;;;;;;;;4984175;28;20175;-78
2023/12/19 14:08:51;;;;;;;7.07;5.40;;;;;;;;;;4988920;28;20246;-78
2023/12/19 14:11:18;;;;;;;8.07;5.70;;;;;;;;;;4986258;28;20726;-78
2023/12/19 14:13:44;;;;;;;6.73;5.33;;;;;;;;;;4989200;28;20321;-78
2023/12/19 14:16:11;;;;;;;7.20;5.43;;;;;;;;;;4984945;28;20200;-78
2023/12/19 14:18:37;;;;;;;7.77;5.70;;;;;;;;;;4988711;28;20180;-80
2023/12/19 14:21:03;;;;;;;7.73;5.37;;;;;;;;;;4985656;28;20330;-79
2023/12/19 14:23:30;;;;;;;7.67;5.40;;;;;;;;;;4967600;28;20188;-79